createdAt,value
2023-10-16T00:00:44.021Z,51.81
2023-10-16T00:01:44.009Z,49.83
2023-10-16T00:02:43.987Z,53.09
2023-10-16T00:03:44.135Z,54.81
2023-10-16T00:04:43.975Z,56.41
2023-10-16T00:05:43.947Z,50.00
2023-10-16T00:06:43.973Z,49.20
2023-10-16T00:07:43.926Z,53.05
2023-10-16T00:08:43.919Z,54.87
2023-10-16T00:09:43.973Z,53.77
2023-10-16T00:10:43.900Z,53.87
2023-10-16T00:11:43.946Z,52.04
2023-10-16T00:12:43.910Z,53.82
2023-10-16T00:13:43.882Z,51.73
2023-10-16T00:14:43.895Z,47.86
2023-10-16T00:15:43.901Z,54.16
2023-10-16T00:16:43.912Z,54.00
2023-10-16T00:17:43.936Z,53.26
2023-10-16T00:18:43.882Z,53.08
2023-10-16T00:19:43.967Z,55.25
2023-10-16T00:20:43.862Z,51.80
2023-10-16T00:21:43.861Z,53.20
2023-10-16T00:22:43.824Z,57.12
2023-10-16T00:23:43.810Z,55.37
2023-10-16T00:24:43.853Z,56.72
2023-10-16T00:25:43.832Z,57.41
2023-10-16T00:26:43.789Z,54.23
2023-10-16T00:27:43.875Z,54.04
2023-10-16T00:28:43.774Z,50.63
2023-10-16T00:29:43.763Z,53.37
2023-10-16T00:30:43.807Z,54.01
2023-10-16T00:31:43.799Z,50.74
2023-10-16T00:32:43.800Z,49.94
2023-10-16T00:33:43.786Z,47.82
2023-10-16T00:34:43.744Z,48.20
2023-10-16T00:35:43.731Z,49.54
2023-10-16T00:36:43.887Z,53.05
2023-10-16T00:37:43.714Z,49.36
2023-10-16T00:38:43.706Z,49.82
2023-10-16T00:39:43.787Z,54.49
2023-10-16T00:40:43.704Z,54.68
2023-10-16T00:41:43.694Z,53.15
2023-10-16T00:42:43.736Z,52.13
2023-10-16T00:43:43.676Z,55.56
2023-10-16T00:44:43.670Z,52.02
2023-10-16T00:45:43.710Z,54.52
2023-10-16T00:46:43.690Z,53.01
2023-10-16T00:47:43.721Z,47.03
2023-10-16T00:48:43.675Z,49.37
2023-10-16T00:49:43.625Z,51.77
2023-10-16T00:50:43.622Z,55.22
2023-10-16T00:51:43.710Z,55.43
2023-10-16T00:52:43.607Z,56.22
2023-10-16T00:53:43.620Z,53.25
2023-10-16T00:54:43.657Z,49.56
2023-10-16T00:55:43.590Z,50.74
2023-10-16T00:56:43.592Z,51.45
2023-10-16T00:57:43.623Z,54.35
2023-10-16T00:58:43.702Z,51.95
2023-10-16T00:59:43.556Z,47.88
2023-10-16T01:00:43.597Z,49.36
2023-10-16T01:01:43.622Z,53.62
2023-10-16T01:02:43.650Z,50.08
2023-10-16T01:03:43.794Z,50.88
2023-10-16T01:04:43.518Z,48.85
2023-10-16T01:05:43.550Z,48.95
2023-10-16T01:06:43.564Z,55.37
2023-10-16T01:07:43.515Z,53.28
2023-10-16T01:08:43.544Z,53.62
2023-10-16T01:09:43.583Z,49.62
2023-10-16T01:10:43.482Z,53.21
2023-10-16T01:11:43.484Z,48.55
2023-10-16T01:12:43.482Z,57.53
2023-10-16T01:13:43.477Z,55.69
2023-10-16T01:14:43.494Z,54.67
2023-10-16T01:15:43.516Z,55.30
2023-10-16T01:16:43.482Z,52.38
2023-10-16T01:17:43.463Z,56.01
2023-10-16T01:18:43.503Z,54.14
2023-10-16T01:19:43.508Z,54.86
2023-10-16T01:20:43.440Z,56.46
2023-10-16T01:21:43.442Z,50.40
2023-10-16T01:22:43.422Z,51.51
2023-10-16T01:23:43.401Z,56.17
2023-10-16T01:24:43.489Z,55.49
2023-10-16T01:25:43.416Z,52.32
2023-10-16T01:26:43.381Z,53.91
2023-10-16T01:27:43.460Z,49.34
2023-10-16T01:28:44.368Z,53.54
2023-10-16T01:29:43.371Z,52.96
2023-10-16T01:30:43.389Z,53.48
2023-10-16T01:31:43.387Z,51.55
2023-10-16T01:32:43.351Z,53.86
2023-10-16T01:33:43.354Z,55.55
2023-10-16T01:34:43.328Z,54.13
2023-10-16T01:35:43.315Z,57.06
2023-10-16T01:36:43.372Z,52.95
2023-10-16T01:37:43.303Z,56.73
2023-10-16T01:38:43.291Z,55.50
2023-10-16T01:39:43.310Z,57.49
2023-10-16T01:40:43.279Z,54.97
2023-10-16T01:41:43.304Z,52.80
2023-10-16T01:42:43.314Z,49.77
2023-10-16T01:43:43.257Z,54.61
2023-10-16T01:44:43.257Z,54.05
2023-10-16T01:45:43.340Z,52.81
2023-10-16T01:46:43.356Z,54.35
2023-10-16T01:47:43.560Z,53.09
2023-10-16T01:48:43.304Z,50.06
2023-10-16T01:49:43.222Z,55.27
2023-10-16T01:50:43.207Z,50.79
2023-10-16T01:51:43.238Z,52.05
2023-10-16T01:52:43.213Z,51.31
2023-10-16T01:53:43.186Z,51.18
2023-10-16T01:54:43.218Z,51.66
2023-10-16T01:55:43.186Z,53.13
2023-10-16T01:56:43.176Z,52.90
2023-10-16T01:57:43.275Z,48.39
2023-10-16T01:58:43.148Z,49.40
2023-10-16T01:59:43.154Z,49.62
2023-10-16T02:00:43.165Z,55.91
2023-10-16T02:01:43.186Z,49.23
2023-10-16T02:02:43.202Z,54.00
2023-10-16T02:03:43.196Z,49.95
2023-10-16T02:04:43.137Z,50.77
2023-10-16T02:05:43.129Z,52.46
2023-10-16T02:06:43.140Z,53.85
2023-10-16T02:07:43.103Z,52.77
2023-10-16T02:08:43.139Z,53.35
2023-10-16T02:09:43.348Z,52.23
2023-10-16T02:10:43.095Z,53.40
2023-10-16T02:11:43.089Z,54.53
2023-10-16T02:12:43.253Z,52.62
2023-10-16T02:13:43.081Z,52.97
2023-10-16T02:14:43.101Z,57.69
2023-10-16T02:15:43.094Z,56.27
2023-10-16T02:16:43.082Z,54.44
2023-10-16T02:17:43.050Z,59.07
2023-10-16T02:18:43.043Z,55.97
2023-10-16T02:19:43.031Z,56.05
2023-10-16T02:20:43.015Z,54.72
2023-10-16T02:21:43.016Z,54.56
2023-10-16T02:22:42.999Z,54.84
2023-10-16T02:23:42.996Z,55.64
2023-10-16T02:24:43.046Z,56.94
2023-10-16T02:25:42.985Z,55.23
2023-10-16T02:26:42.975Z,52.68
2023-10-16T02:27:43.355Z,53.11
2023-10-16T02:28:42.998Z,53.98
2023-10-16T02:29:42.969Z,56.60
2023-10-16T02:30:43.060Z,53.51
2023-10-16T02:31:43.026Z,55.87
2023-10-16T02:32:43.026Z,56.78
2023-10-16T02:33:42.938Z,56.81
2023-10-16T02:34:42.929Z,51.87
2023-10-16T02:35:42.922Z,57.39
2023-10-16T02:36:42.953Z,55.40
2023-10-16T02:37:42.899Z,52.20
2023-10-16T02:38:42.899Z,55.43
2023-10-16T02:39:42.993Z,56.91
2023-10-16T02:40:42.870Z,57.87
2023-10-16T02:41:42.895Z,55.97
2023-10-16T02:42:42.899Z,58.82
2023-10-16T02:43:42.973Z,58.91
2023-10-16T02:44:42.848Z,56.32
2023-10-16T02:45:42.876Z,58.96
2023-10-16T02:46:42.870Z,53.99
2023-10-16T02:47:42.838Z,58.26
2023-10-16T02:48:42.906Z,54.43
2023-10-16T02:49:42.824Z,58.53
2023-10-16T02:50:42.912Z,59.62
2023-10-16T02:51:42.817Z,60.69
2023-10-16T02:52:42.815Z,54.62
2023-10-16T02:53:42.964Z,53.33
2023-10-16T02:54:42.812Z,58.77
2023-10-16T02:55:42.779Z,56.43
2023-10-16T02:56:42.771Z,56.54
2023-10-16T02:57:42.785Z,57.12
2023-10-16T02:58:42.743Z,56.80
2023-10-16T02:59:42.751Z,55.85
2023-10-16T03:00:42.811Z,56.59
2023-10-16T03:01:42.760Z,57.10
2023-10-16T03:02:42.790Z,58.04
2023-10-16T03:03:42.750Z,60.68
2023-10-16T03:04:42.717Z,60.43
2023-10-16T03:05:42.722Z,61.36
2023-10-16T03:06:42.746Z,61.59
2023-10-16T03:07:42.708Z,60.96
2023-10-16T03:08:42.710Z,59.81
2023-10-16T03:09:42.682Z,61.62
2023-10-16T03:10:42.666Z,58.73
2023-10-16T03:11:42.666Z,61.14
2023-10-16T03:12:42.682Z,59.20
2023-10-16T03:13:42.657Z,59.73
2023-10-16T03:14:42.642Z,59.80
2023-10-16T03:15:42.659Z,59.19
2023-10-16T03:16:42.659Z,59.94
2023-10-16T03:17:42.644Z,59.30
2023-10-16T03:18:42.659Z,61.05
2023-10-16T03:19:42.605Z,59.57
2023-10-16T03:20:42.609Z,59.55
2023-10-16T03:21:42.634Z,61.90
2023-10-16T03:22:42.598Z,63.90
2023-10-16T03:23:42.614Z,61.60
2023-10-16T03:24:42.615Z,63.47
2023-10-16T03:25:42.625Z,61.16
2023-10-16T03:26:42.579Z,60.11
2023-10-16T03:27:42.620Z,59.62
2023-10-16T03:28:42.565Z,61.00
2023-10-16T03:29:42.586Z,60.53
2023-10-16T03:30:42.595Z,60.44
2023-10-16T03:31:42.571Z,59.12
2023-10-16T03:32:42.624Z,60.98
2023-10-16T03:33:42.625Z,59.80
2023-10-16T03:34:42.616Z,59.60
2023-10-16T03:35:42.518Z,59.10
2023-10-16T03:36:42.582Z,60.17
2023-10-16T03:37:42.504Z,60.52
2023-10-16T03:38:42.492Z,60.35
2023-10-16T03:39:42.534Z,59.41
2023-10-16T03:40:42.762Z,59.92
2023-10-16T03:41:42.455Z,61.54
2023-10-16T03:42:42.469Z,61.13
2023-10-16T03:43:42.451Z,59.48
2023-10-16T03:44:42.440Z,59.26
2023-10-16T03:45:42.490Z,58.80
2023-10-16T03:46:42.523Z,59.86
2023-10-16T03:47:42.452Z,59.43
2023-10-16T03:48:42.465Z,59.90
2023-10-16T03:49:42.428Z,60.65
2023-10-16T03:50:42.402Z,60.37
2023-10-16T03:51:42.464Z,61.16
2023-10-16T03:52:42.397Z,61.74
2023-10-16T03:53:42.384Z,60.75
2023-10-16T03:54:42.763Z,60.22
2023-10-16T03:55:42.482Z,61.57
2023-10-16T03:56:42.402Z,60.71
2023-10-16T03:57:42.394Z,61.29
2023-10-16T03:58:42.369Z,60.82
2023-10-16T03:59:42.347Z,60.87
2023-10-16T04:00:42.436Z,61.00
2023-10-16T04:01:42.386Z,60.93
2023-10-16T04:02:42.381Z,61.10
2023-10-16T04:03:44.059Z,62.49
2023-10-16T04:04:43.364Z,64.03
2023-10-16T04:05:42.303Z,62.57
2023-10-16T04:06:42.356Z,62.01
2023-10-16T04:07:42.324Z,62.69
2023-10-16T04:08:42.287Z,62.50
2023-10-16T04:09:42.339Z,61.36
2023-10-16T04:10:42.270Z,61.04
2023-10-16T04:11:42.263Z,61.97
2023-10-16T04:12:42.301Z,61.92
2023-10-16T04:13:42.264Z,61.07
2023-10-16T04:14:42.280Z,60.65
2023-10-16T04:15:42.250Z,60.64
2023-10-16T04:16:42.328Z,62.39
2023-10-16T04:17:42.299Z,60.60
2023-10-16T04:18:42.239Z,61.26
2023-10-16T04:19:42.214Z,62.69
2023-10-16T04:20:42.216Z,62.07
2023-10-16T04:21:42.267Z,61.14
2023-10-16T04:22:42.190Z,61.19
2023-10-16T04:23:42.278Z,61.24
2023-10-16T04:24:42.260Z,62.66
2023-10-16T04:25:42.198Z,61.33
2023-10-16T04:26:42.169Z,61.63
2023-10-16T04:27:42.201Z,60.55
2023-10-16T04:28:42.162Z,61.70
2023-10-16T04:29:43.146Z,60.73
2023-10-16T04:30:43.159Z,59.81
2023-10-16T04:31:42.153Z,61.33
2023-10-16T04:32:42.133Z,61.74
2023-10-16T04:33:43.148Z,62.57
2023-10-16T04:34:42.114Z,62.15
2023-10-16T04:35:42.100Z,62.34
2023-10-16T04:36:42.116Z,62.85
2023-10-16T04:37:42.085Z,63.42
2023-10-16T04:38:42.091Z,62.77
2023-10-16T04:39:42.112Z,63.71
2023-10-16T04:40:42.070Z,63.46
2023-10-16T04:41:44.526Z,63.23
2023-10-16T04:42:43.121Z,62.65
2023-10-16T04:43:42.042Z,63.16
2023-10-16T04:44:42.063Z,63.79
2023-10-16T04:45:42.024Z,63.06
2023-10-16T04:46:42.068Z,61.98
2023-10-16T04:47:42.030Z,62.83
2023-10-16T04:48:42.024Z,63.16
2023-10-16T04:49:42.005Z,63.10
2023-10-16T04:51:16.559Z,62.00
2023-10-16T04:52:42.989Z,62.03
2023-10-16T04:53:41.977Z,62.14
2023-10-16T04:54:41.999Z,61.83
2023-10-16T04:55:41.973Z,62.72
2023-10-16T04:56:41.953Z,62.80
2023-10-16T04:57:42.030Z,62.98
2023-10-16T04:58:41.949Z,63.20
2023-10-16T04:59:41.938Z,64.26
2023-10-16T05:00:41.948Z,63.37
2023-10-16T05:01:41.978Z,63.99
2023-10-16T05:02:41.986Z,63.74
2023-10-16T05:03:41.962Z,63.79
2023-10-16T05:04:41.945Z,62.24
2023-10-16T05:05:41.934Z,62.75
2023-10-16T05:06:41.930Z,61.89
2023-10-16T05:07:41.877Z,61.78
2023-10-16T05:08:41.901Z,62.09
2023-10-16T05:09:41.882Z,62.40
2023-10-16T05:10:42.875Z,62.70
2023-10-16T05:11:41.854Z,62.81
2023-10-16T05:12:41.854Z,62.10
2023-10-16T05:13:41.852Z,62.33
2023-10-16T05:14:41.834Z,62.42
2023-10-16T05:15:41.923Z,62.75
2023-10-16T05:16:41.856Z,61.98
2023-10-16T05:17:41.850Z,61.42
2023-10-16T05:18:41.848Z,60.76
2023-10-16T05:19:41.813Z,62.60
2023-10-16T05:20:41.798Z,62.33
2023-10-16T05:21:41.843Z,61.90
2023-10-16T05:22:41.785Z,62.02
2023-10-16T05:23:41.784Z,62.39
2023-10-16T05:24:41.778Z,62.00
2023-10-16T05:25:41.762Z,62.34
2023-10-16T05:26:41.778Z,62.32
2023-10-16T05:27:41.851Z,63.04
2023-10-16T05:28:41.748Z,62.94
2023-10-16T05:29:52.348Z,62.72
2023-10-16T05:30:43.746Z,61.88
2023-10-16T05:31:41.737Z,63.28
2023-10-16T05:32:41.742Z,63.70
2023-10-16T05:33:41.711Z,63.99
2023-10-16T05:34:41.695Z,63.58
2023-10-16T05:35:41.742Z,62.24
2023-10-16T05:36:41.729Z,62.55
2023-10-16T05:37:41.701Z,63.43
2023-10-16T05:38:41.675Z,62.21
2023-10-16T05:39:41.700Z,63.06
2023-10-16T05:40:41.665Z,62.99
2023-10-16T05:41:41.668Z,63.15
2023-10-16T05:42:41.664Z,62.82
2023-10-16T05:43:41.848Z,63.41
2023-10-16T05:44:41.643Z,63.13
2023-10-16T05:45:41.751Z,63.27
2023-10-16T05:46:41.635Z,63.20
2023-10-16T05:47:41.660Z,63.60
2023-10-16T05:48:41.618Z,64.54
2023-10-16T05:49:41.608Z,64.03
2023-10-16T05:50:41.611Z,63.24
2023-10-16T05:51:41.685Z,63.25
2023-10-16T05:52:41.582Z,62.90
2023-10-16T05:53:41.601Z,61.82
2023-10-16T05:54:41.640Z,62.89
2023-10-16T05:55:41.567Z,62.45
2023-10-16T05:56:41.569Z,62.52
2023-10-16T05:57:41.611Z,62.23
2023-10-16T05:58:41.533Z,62.58
2023-10-16T05:59:41.545Z,62.44
2023-10-16T06:00:41.598Z,61.37
2023-10-16T06:01:41.584Z,60.72
2023-10-16T06:02:41.572Z,61.39
2023-10-16T06:03:41.600Z,61.25
2023-10-16T06:04:41.598Z,62.16
2023-10-16T06:05:41.536Z,61.39
2023-10-16T06:06:41.531Z,62.24
2023-10-16T06:07:41.515Z,61.91
2023-10-16T06:08:41.481Z,61.21
2023-10-16T06:09:41.499Z,63.30
2023-10-16T06:10:41.478Z,60.54
2023-10-16T06:11:41.479Z,60.91
2023-10-16T06:12:41.480Z,61.76
2023-10-16T06:13:41.443Z,62.02
2023-10-16T06:14:41.448Z,62.61
2023-10-16T06:15:41.459Z,62.15
2023-10-16T06:16:41.485Z,62.65
2023-10-16T06:17:41.525Z,62.36
2023-10-16T06:18:41.514Z,62.86
2023-10-16T06:19:41.410Z,62.38
2023-10-16T06:20:41.424Z,61.51
2023-10-16T06:21:41.450Z,61.77
2023-10-16T06:22:41.395Z,63.10
2023-10-16T06:23:41.390Z,62.11
2023-10-16T06:24:41.441Z,61.52
2023-10-16T06:25:41.367Z,62.75
2023-10-16T06:26:41.372Z,61.61
2023-10-16T06:27:41.411Z,62.57
2023-10-16T06:28:41.355Z,61.48
2023-10-16T06:29:41.380Z,61.92
2023-10-16T06:30:41.388Z,61.73
2023-10-16T06:31:41.366Z,60.67
2023-10-16T06:32:41.415Z,60.70
2023-10-16T06:33:41.338Z,60.57
2023-10-16T06:34:41.333Z,61.24
2023-10-16T06:35:41.302Z,61.62
2023-10-16T06:36:41.314Z,62.00
2023-10-16T06:37:41.286Z,61.97
2023-10-16T06:38:41.285Z,60.89
2023-10-16T06:39:41.304Z,62.59
2023-10-16T06:40:41.287Z,62.48
2023-10-16T06:41:42.064Z,62.14
2023-10-16T06:42:41.320Z,63.38
2023-10-16T06:43:41.245Z,62.33
2023-10-16T06:44:41.263Z,62.27
2023-10-16T06:45:41.305Z,60.91
2023-10-16T06:46:41.403Z,61.10
2023-10-16T06:47:41.224Z,60.96
2023-10-16T06:48:41.246Z,60.97
2023-10-16T06:49:41.211Z,60.99
2023-10-16T06:50:41.279Z,60.81
2023-10-16T06:51:41.327Z,60.53
2023-10-16T06:52:42.208Z,61.15
2023-10-16T06:53:41.174Z,61.05
2023-10-16T06:54:41.418Z,60.43
2023-10-16T06:55:41.189Z,60.78
2023-10-16T06:56:41.164Z,60.69
2023-10-16T06:57:41.227Z,61.64
2023-10-16T06:58:41.149Z,59.93
2023-10-16T06:59:41.150Z,60.24
2023-10-16T07:00:41.238Z,59.97
2023-10-16T07:01:41.262Z,60.09
2023-10-16T07:02:41.150Z,62.41
2023-10-16T07:03:41.185Z,59.37
2023-10-16T07:04:41.185Z,60.74
2023-10-16T07:05:41.106Z,59.79
2023-10-16T07:06:41.118Z,60.06
2023-10-16T07:07:41.121Z,60.63
2023-10-16T07:08:41.085Z,60.89
2023-10-16T07:09:41.114Z,59.74
2023-10-16T07:10:41.055Z,60.02
2023-10-16T07:11:41.075Z,61.16
2023-10-16T07:12:41.058Z,61.20
2023-10-16T07:13:41.056Z,60.81
2023-10-16T07:14:41.042Z,59.78
2023-10-16T07:15:41.220Z,61.66
2023-10-16T07:16:41.125Z,61.13
2023-10-16T07:17:42.050Z,60.88
2023-10-16T07:18:41.071Z,61.12
2023-10-16T07:19:41.007Z,60.06
2023-10-16T07:20:41.032Z,60.46
2023-10-16T07:21:41.055Z,60.40
2023-10-16T07:22:40.996Z,60.28
2023-10-16T07:23:41.007Z,59.34
2023-10-16T07:24:41.040Z,59.42
2023-10-16T07:25:40.977Z,60.40
2023-10-16T07:26:40.956Z,60.68
2023-10-16T07:27:40.978Z,59.75
2023-10-16T07:28:41.090Z,59.99
2023-10-16T07:29:40.947Z,59.56
2023-10-16T07:30:40.957Z,58.78
2023-10-16T07:31:40.956Z,60.16
2023-10-16T07:32:40.945Z,59.30
2023-10-16T07:33:40.999Z,57.79
2023-10-16T07:34:41.916Z,59.11
2023-10-16T07:35:40.915Z,59.83
2023-10-16T07:36:40.934Z,59.68
2023-10-16T07:37:40.873Z,58.28
2023-10-16T07:38:40.895Z,58.31
2023-10-16T07:39:40.908Z,57.96
2023-10-16T07:40:40.853Z,59.70
2023-10-16T07:41:40.853Z,60.18
2023-10-16T07:42:40.906Z,60.38
2023-10-16T07:43:40.864Z,59.20
2023-10-16T07:44:40.838Z,59.11
2023-10-16T07:45:40.821Z,59.85
2023-10-16T07:46:40.891Z,59.30
2023-10-16T07:47:40.811Z,58.29
2023-10-16T07:48:40.862Z,60.41
2023-10-16T07:49:40.802Z,58.27
2023-10-16T07:50:40.786Z,59.40
2023-10-16T07:51:41.093Z,58.64
2023-10-16T07:52:41.780Z,60.21
2023-10-16T07:53:40.811Z,58.54
2023-10-16T07:54:40.779Z,58.15
2023-10-16T07:55:40.767Z,59.50
2023-10-16T07:56:40.759Z,59.23
2023-10-16T07:57:40.776Z,57.74
2023-10-16T07:58:40.769Z,59.51
2023-10-16T07:59:40.725Z,60.14
2023-10-16T08:00:40.761Z,62.09
2023-10-16T08:01:40.766Z,60.02
2023-10-16T08:02:40.726Z,59.27
2023-10-16T08:03:40.775Z,59.95
2023-10-16T08:04:41.113Z,58.65
2023-10-16T08:05:41.689Z,58.37
2023-10-16T08:06:40.715Z,60.18
2023-10-16T08:07:40.694Z,60.63
2023-10-16T08:08:40.669Z,59.79
2023-10-16T08:09:40.710Z,60.96
2023-10-16T08:10:40.662Z,57.94
2023-10-16T08:11:40.639Z,58.90
2023-10-16T08:12:40.650Z,58.71
2023-10-16T08:13:40.644Z,59.67
2023-10-16T08:14:40.631Z,59.16
2023-10-16T08:15:40.681Z,59.43
2023-10-16T08:16:40.728Z,60.82
2023-10-16T08:17:40.815Z,60.17
2023-10-16T08:18:40.738Z,60.30
2023-10-16T08:19:40.617Z,59.56
2023-10-16T08:20:40.717Z,60.34
2023-10-16T08:21:40.846Z,59.02
2023-10-16T08:22:40.570Z,60.29
2023-10-16T08:23:40.579Z,59.17
2023-10-16T08:24:40.571Z,59.64
2023-10-16T08:25:40.556Z,59.17
2023-10-16T08:26:40.578Z,59.44
2023-10-16T08:27:40.583Z,59.13
2023-10-16T08:28:40.562Z,58.73
2023-10-16T08:29:40.516Z,57.50
2023-10-16T08:30:40.652Z,56.28
2023-10-16T08:31:40.638Z,57.70
2023-10-16T08:32:40.642Z,60.40
2023-10-16T08:33:40.566Z,59.23
2023-10-16T08:34:40.481Z,60.43
2023-10-16T08:35:40.488Z,60.86
2023-10-16T08:36:40.587Z,59.91
2023-10-16T08:37:51.315Z,60.11
2023-10-16T08:38:42.462Z,60.61
2023-10-16T08:39:40.457Z,58.43
2023-10-16T08:40:40.464Z,60.00
2023-10-16T08:41:40.448Z,59.04
2023-10-16T08:42:40.483Z,60.30
2023-10-16T08:43:40.442Z,60.42
2023-10-16T08:44:40.418Z,61.13
2023-10-16T08:45:40.439Z,59.51
2023-10-16T08:46:40.445Z,59.17
2023-10-16T08:47:40.441Z,58.41
2023-10-16T08:48:40.455Z,59.83
2023-10-16T08:49:55.703Z,60.56
2023-10-16T08:50:42.382Z,61.62
2023-10-16T08:51:40.388Z,60.57
2023-10-16T08:52:40.380Z,60.94
2023-10-16T08:53:40.360Z,59.68
2023-10-16T08:54:40.387Z,58.56
2023-10-16T08:55:40.343Z,60.60
2023-10-16T08:56:40.338Z,59.65
2023-10-16T08:57:40.394Z,59.55
2023-10-16T08:58:40.373Z,59.69
2023-10-16T08:59:40.319Z,59.55
2023-10-16T09:00:40.363Z,58.94
2023-10-16T09:01:40.416Z,59.20
2023-10-16T09:02:40.320Z,58.74
2023-10-16T09:03:40.343Z,60.62
2023-10-16T09:04:40.320Z,60.12
2023-10-16T09:05:40.273Z,59.43
2023-10-16T09:06:40.462Z,58.10
2023-10-16T09:07:40.263Z,58.23
2023-10-16T09:08:40.262Z,59.19
2023-10-16T09:09:40.269Z,60.51
2023-10-16T09:10:40.269Z,60.67
2023-10-16T09:11:40.245Z,59.69
2023-10-16T09:12:40.265Z,59.34
2023-10-16T09:13:41.438Z,59.19
2023-10-16T09:14:40.262Z,60.51
2023-10-16T09:15:40.255Z,59.72
2023-10-16T09:16:40.251Z,61.82
2023-10-16T09:17:40.253Z,60.03
2023-10-16T09:18:40.244Z,60.75
2023-10-16T09:19:43.197Z,60.44
2023-10-16T09:20:41.181Z,60.91
2023-10-16T09:21:40.183Z,60.13
2023-10-16T09:22:40.194Z,60.23
2023-10-16T09:23:41.175Z,59.33
2023-10-16T09:24:40.351Z,59.60
2023-10-16T09:25:40.219Z,59.92
2023-10-16T09:26:40.139Z,59.80
2023-10-16T09:27:40.209Z,59.90
2023-10-16T09:28:40.134Z,59.75
2023-10-16T09:29:40.136Z,60.59
2023-10-16T09:30:40.169Z,60.31
2023-10-16T09:31:40.204Z,61.44
2023-10-16T09:32:40.166Z,58.97
2023-10-16T09:33:40.163Z,59.14
2023-10-16T09:34:40.082Z,58.93
2023-10-16T09:35:40.084Z,59.59
2023-10-16T09:36:40.094Z,59.42
2023-10-16T09:37:40.073Z,60.37
2023-10-16T09:38:40.086Z,59.63
2023-10-16T09:39:40.072Z,60.04
2023-10-16T09:40:41.878Z,59.92
2023-10-16T09:41:41.047Z,60.25
2023-10-16T09:42:40.090Z,60.65
2023-10-16T09:43:40.034Z,58.97
2023-10-16T09:44:40.018Z,58.64
2023-10-16T09:45:40.062Z,60.54
2023-10-16T09:46:40.162Z,60.90
2023-10-16T09:47:40.079Z,59.86
2023-10-16T09:48:40.024Z,59.86
2023-10-16T09:49:39.992Z,58.91
2023-10-16T09:50:40.013Z,59.54
2023-10-16T09:51:48.077Z,59.41
2023-10-16T09:52:42.104Z,60.84
2023-10-16T09:53:39.960Z,61.65
2023-10-16T09:54:39.987Z,60.32
2023-10-16T09:55:40.089Z,61.69
2023-10-16T09:56:40.994Z,62.56
2023-10-16T09:57:39.959Z,60.00
2023-10-16T09:58:39.950Z,60.62
2023-10-16T09:59:40.492Z,60.19
2023-10-16T10:00:39.966Z,59.84
2023-10-16T10:01:39.916Z,59.38
2023-10-16T10:02:40.113Z,59.20
2023-10-16T10:03:40.077Z,59.64
2023-10-16T10:04:40.003Z,61.88
2023-10-16T10:05:39.898Z,60.46
2023-10-16T10:06:39.903Z,59.64
2023-10-16T10:07:39.870Z,60.21
2023-10-16T10:08:39.879Z,60.30
2023-10-16T10:09:39.953Z,61.79
2023-10-16T10:10:39.870Z,60.60
2023-10-16T10:11:39.922Z,59.67
2023-10-16T10:12:39.869Z,58.95
2023-10-16T10:13:39.849Z,60.51
2023-10-16T10:14:39.840Z,61.04
2023-10-16T10:15:39.853Z,60.16
2023-10-16T10:16:39.867Z,59.60
2023-10-16T10:17:39.887Z,59.71
2023-10-16T10:18:39.925Z,58.59
2023-10-16T10:19:39.793Z,58.37
2023-10-16T10:20:39.794Z,59.23
2023-10-16T10:21:39.823Z,59.71
2023-10-16T10:22:39.769Z,59.84
2023-10-16T10:23:39.761Z,59.20
2023-10-16T10:24:39.828Z,58.60
2023-10-16T10:25:39.757Z,59.76
2023-10-16T10:26:39.970Z,59.41
2023-10-16T10:27:39.818Z,58.10
2023-10-16T10:28:39.808Z,58.78
2023-10-16T10:29:39.721Z,58.90
2023-10-16T10:30:40.752Z,58.48
2023-10-16T10:31:39.779Z,58.43
2023-10-16T10:32:39.788Z,60.18
2023-10-16T10:33:39.784Z,61.83
2023-10-16T10:34:39.787Z,61.75
2023-10-16T10:35:39.699Z,59.85
2023-10-16T10:36:39.742Z,60.52
2023-10-16T10:37:39.702Z,59.40
2023-10-16T10:38:39.691Z,60.82
2023-10-16T10:39:39.850Z,58.95
2023-10-16T10:40:39.654Z,59.87
2023-10-16T10:41:39.639Z,59.22
2023-10-16T10:42:39.657Z,58.81
2023-10-16T10:43:39.833Z,61.95
2023-10-16T10:44:39.626Z,61.61
2023-10-16T10:45:39.682Z,60.37
2023-10-16T10:46:39.647Z,61.82
2023-10-16T10:47:39.687Z,62.04
2023-10-16T10:48:39.670Z,60.69
2023-10-16T10:49:39.606Z,61.65
2023-10-16T10:50:39.747Z,60.55
2023-10-16T10:51:39.579Z,60.00
2023-10-16T10:52:39.567Z,60.33
2023-10-16T10:53:39.593Z,59.76
2023-10-16T10:54:39.564Z,59.67
2023-10-16T10:55:39.572Z,59.02
2023-10-16T10:56:39.529Z,59.02
2023-10-16T10:57:39.547Z,60.30
2023-10-16T10:58:39.531Z,60.43
2023-10-16T10:59:39.526Z,59.06
2023-10-16T11:00:39.543Z,61.59
2023-10-16T11:01:39.793Z,60.73
2023-10-16T11:02:39.500Z,59.70
2023-10-16T11:03:39.541Z,60.24
2023-10-16T11:04:39.529Z,59.24
2023-10-16T11:05:39.467Z,57.42
2023-10-16T11:06:39.729Z,59.49
2023-10-16T11:07:39.536Z,60.17
2023-10-16T11:08:39.442Z,59.42
2023-10-16T11:09:39.461Z,61.26
2023-10-16T11:10:39.428Z,60.49
2023-10-16T11:11:39.432Z,59.72
2023-10-16T11:12:39.447Z,60.35
2023-10-16T11:13:39.443Z,60.62
2023-10-16T11:14:39.415Z,59.53
2023-10-16T11:15:39.408Z,58.90
2023-10-16T11:16:39.422Z,59.48
2023-10-16T11:17:39.485Z,60.48
2023-10-16T11:18:39.530Z,59.13
2023-10-16T11:19:39.377Z,59.51
2023-10-16T11:20:39.363Z,59.26
2023-10-16T11:21:39.383Z,59.10
2023-10-16T11:22:39.444Z,59.02
2023-10-16T11:23:39.348Z,60.67
2023-10-16T11:24:39.358Z,62.64
2023-10-16T11:25:39.350Z,59.72
2023-10-16T11:26:39.343Z,58.23
2023-10-16T11:27:39.455Z,57.75
2023-10-16T11:28:39.325Z,58.47
2023-10-16T11:29:39.307Z,58.84
2023-10-16T11:30:39.327Z,58.01
2023-10-16T11:31:39.379Z,58.39
2023-10-16T11:32:39.344Z,60.00
2023-10-16T11:33:39.288Z,61.39
2023-10-16T11:34:39.258Z,59.82
2023-10-16T11:35:39.249Z,59.71
2023-10-16T11:36:45.057Z,59.07
2023-10-16T11:37:41.254Z,59.40
2023-10-16T11:38:39.244Z,58.62
2023-10-16T11:39:39.257Z,58.92
2023-10-16T11:40:39.229Z,59.35
2023-10-16T11:41:39.214Z,59.01
2023-10-16T11:42:39.219Z,58.35
2023-10-16T11:43:39.200Z,58.74
2023-10-16T11:44:39.448Z,58.30
2023-10-16T11:45:39.306Z,58.61
2023-10-16T11:46:39.353Z,59.66
2023-10-16T11:47:39.238Z,57.37
2023-10-16T11:48:39.196Z,58.18
2023-10-16T11:49:39.161Z,58.26
2023-10-16T11:50:39.150Z,58.52
2023-10-16T11:51:39.169Z,60.71
2023-10-16T11:52:39.173Z,60.32
2023-10-16T11:53:39.144Z,59.42
2023-10-16T11:54:39.260Z,58.95
2023-10-16T11:55:39.133Z,58.29
2023-10-16T11:56:39.130Z,59.52
2023-10-16T11:57:39.115Z,58.44
2023-10-16T11:58:39.132Z,57.63
2023-10-16T11:59:39.086Z,57.63
2023-10-16T12:00:39.115Z,56.26
2023-10-16T12:01:50.683Z,56.75
2023-10-16T12:02:41.109Z,57.17
2023-10-16T12:03:40.167Z,55.86
2023-10-16T12:04:39.105Z,57.16
2023-10-16T12:05:39.048Z,56.55
2023-10-16T12:06:39.087Z,58.66
2023-10-16T12:07:39.064Z,58.46
2023-10-16T12:08:39.047Z,58.37
2023-10-16T12:09:39.054Z,56.16
2023-10-16T12:10:39.146Z,56.93
2023-10-16T12:11:39.006Z,59.23
2023-10-16T12:12:39.009Z,58.56
2023-10-16T12:13:39.001Z,57.94
2023-10-16T12:14:39.188Z,58.58
2023-10-16T12:15:39.052Z,58.55
2023-10-16T12:16:41.208Z,59.59
2023-10-16T12:17:40.032Z,58.54
2023-10-16T12:18:38.990Z,56.34
2023-10-16T12:19:38.963Z,56.87
2023-10-16T12:20:38.967Z,56.87
2023-10-16T12:21:38.972Z,57.79
2023-10-16T12:22:38.926Z,62.02
2023-10-16T12:23:38.923Z,59.47
2023-10-16T12:24:38.949Z,59.89
2023-10-16T12:25:38.920Z,59.92
2023-10-16T12:26:39.111Z,58.95
2023-10-16T12:27:38.941Z,58.86
2023-10-16T12:28:39.123Z,57.83
2023-10-16T12:29:39.895Z,57.06
2023-10-16T12:30:38.910Z,57.44
2023-10-16T12:31:38.892Z,57.38
2023-10-16T12:32:38.907Z,59.55
2023-10-16T12:33:38.908Z,59.33
2023-10-16T12:34:38.849Z,57.48
2023-10-16T12:35:38.845Z,57.77
2023-10-16T12:36:38.858Z,55.87
2023-10-16T12:37:38.846Z,57.75
2023-10-16T12:38:38.829Z,58.84
2023-10-16T12:39:38.836Z,57.48
2023-10-16T12:40:38.816Z,57.56
2023-10-16T12:41:38.839Z,56.73
2023-10-16T12:42:38.846Z,60.36
2023-10-16T12:43:38.793Z,58.94
2023-10-16T12:44:38.794Z,59.21
2023-10-16T12:45:38.913Z,58.61
2023-10-16T12:46:38.769Z,58.46
2023-10-16T12:48:40.875Z,59.37
2023-10-16T12:49:38.749Z,58.49
2023-10-16T12:50:38.741Z,60.14
2023-10-16T12:51:38.773Z,60.76
2023-10-16T12:52:38.743Z,58.62
2023-10-16T12:53:38.751Z,60.27
2023-10-16T12:54:38.750Z,56.44